Time;durP1;ratioP1;P1;durP2;ratioP2;P2;SDS_P1;SDS_P2;PMS_P1;PMS_P2;Temp;Humidity;BMP_temperature;BMP_pressure;BME280_temperature;BME280_humidity;BME280_pressure;Samples;Min_cycle;Max_cycle;Signal;HPM_P1;HPM_P2
2023/10/07 00:01:45;;;;;;;2.37;1.37;;;;;;;15.16;100.00;102254.22;2056108;28;20285;-67
2023/10/07 00:02:45;;;;;;;2.67;1.50;;;;;;;15.48;100.00;102313.16;2055979;28;20453;-67
2023/10/07 00:03:46;;;;;;;2.40;1.37;;;;;;;15.47;100.00;102306.00;2056240;28;20432;-67
2023/10/07 00:04:47;;;;;;;2.20;1.50;;;;;;;15.47;100.00;102315.16;2055949;28;20195;-67
2023/10/07 00:05:50;;;;;;;2.10;1.33;;;;;;;15.42;100.00;102304.47;2055980;28;20559;-67
2023/10/07 00:06:51;;;;;;;2.07;1.23;;;;;;;15.45;100.00;102302.81;2055515;28;20493;-67
2023/10/07 00:08:00;;;;;;;2.33;1.63;;;;;;;15.44;100.00;102313.22;2054884;28;20426;-67
2023/10/07 00:09:01;;;;;;;2.70;1.53;;;;;;;15.44;100.00;102306.84;2055614;28;20395;-67
2023/10/07 00:10:05;;;;;;;2.63;1.50;;;;;;;15.43;100.00;102303.22;2056995;28;20937;-67
2023/10/07 00:11:11;;;;;;;2.30;1.60;;;;;;;15.43;100.00;102306.03;2055745;28;20627;-67
2023/10/07 00:12:15;;;;;;;3.13;1.63;;;;;;;15.45;100.00;102302.81;2056209;28;20956;-67
2023/10/07 00:13:20;;;;;;;4.20;1.40;;;;;;;15.45;100.00;102302.81;2055986;28;20676;-67
2023/10/07 00:14:28;;;;;;;2.27;1.70;;;;;;;15.45;100.00;102300.03;2056116;28;20440;-67
2023/10/07 00:15:29;;;;;;;3.07;1.50;;;;;;;15.44;100.00;102293.66;2055873;28;20463;-67
2023/10/07 00:16:29;;;;;;;4.70;1.67;;;;;;;15.45;100.00;102298.03;2056214;28;20445;-67
2023/10/07 00:17:29;;;;;;;2.47;1.53;;;;;;;15.45;100.00;102300.03;2054861;28;20652;-67
2023/10/07 00:18:30;;;;;;;2.53;1.50;;;;;;;15.44;100.00;102292.88;2054757;28;20189;-67
2023/10/07 00:19:33;;;;;;;1.70;1.27;;;;;;;15.44;100.00;102293.66;2055433;28;20661;-67
2023/10/07 00:20:33;;;;;;;2.17;1.30;;;;;;;15.45;100.00;102302.81;2055817;28;20182;-67
2023/10/07 00:21:59;;;;;;;3.00;1.30;;;;;;;15.44;100.00;102293.66;2056280;28;20424;-67
2023/10/07 00:23:04;;;;;;;2.33;1.50;;;;;;;15.44;100.00;102295.66;2049524;28;20164;-67
2023/10/07 00:24:06;;;;;;;3.37;1.50;;;;;;;15.32;100.00;102280.25;2055913;28;20413;-67
2023/10/07 00:25:13;;;;;;;3.20;1.60;;;;;;;15.11;100.00;102240.75;2055558;28;20994;-67
2023/10/07 00:26:14;;;;;;;2.73;1.90;;;;;;;15.44;100.00;102287.28;2056187;28;20403;-67
2023/10/07 00:27:26;;;;;;;2.13;1.40;;;;;;;15.44;100.00;102293.66;2055334;28;20454;-67
2023/10/07 00:28:35;;;;;;;3.60;1.60;;;;;;;15.27;100.00;102257.63;2055067;28;20746;-67
2023/10/07 00:29:53;;;;;;;3.93;1.60;;;;;;;15.44;100.00;102285.28;2047719;29;20406;-67
2023/10/07 00:30:55;;;;;;;2.40;1.50;;;;;;;15.32;100.00;102276.69;2048415;28;20395;-67
2023/10/07 00:31:56;;;;;;;2.07;1.33;;;;;;;15.42;100.00;102287.69;2056350;28;20418;-67
2023/10/07 00:32:58;;;;;;;2.70;1.40;;;;;;;15.42;100.00;102287.69;2055647;28;20481;-67
2023/10/07 00:34:05;;;;;;;2.73;1.60;;;;;;;15.42;100.00;102289.72;2056207;28;20241;-67
2023/10/07 00:35:07;;;;;;;2.07;1.50;;;;;;;15.42;100.00;102284.91;2055212;28;20464;-67
2023/10/07 00:36:10;;;;;;;2.53;1.57;;;;;;;14.76;100.00;102177.13;2054987;28;20476;-67
2023/10/07 00:37:10;;;;;;;2.73;1.57;;;;;;;15.40;100.00;102278.97;2054955;28;20463;-67
2023/10/07 00:38:14;;;;;;;2.70;1.40;;;;;;;15.40;100.00;102278.97;2055161;28;20755;-67
2023/10/07 00:39:21;;;;;;;3.10;1.63;;;;;;;15.38;100.00;102281.38;2055134;28;20261;-67
2023/10/07 00:40:32;;;;;;;3.43;1.50;;;;;;;15.33;100.00;102286.66;2055737;28;20414;-67
2023/10/07 00:41:39;;;;;;;1.97;1.30;;;;;;;15.31;100.00;102283.50;2055687;28;20403;-67
2023/10/07 00:42:45;;;;;;;1.60;1.10;;;;;;;15.27;100.00;102277.16;2056119;28;20433;-67
2023/10/07 00:43:46;;;;;;;3.00;1.40;;;;;;;15.14;100.00;102263.03;2055900;28;20741;-67
2023/10/07 00:44:53;;;;;;;3.60;2.10;;;;;;;15.18;100.00;102271.34;2055436;28;20460;-67
2023/10/07 00:46:20;;;;;;;2.90;1.67;;;;;;;15.15;100.00;102278.56;2056098;28;20459;-67
2023/10/07 00:47:21;;;;;;;5.87;2.00;;;;;;;15.12;100.00;102276.59;2055308;28;20464;-67
2023/10/07 00:48:38;;;;;;;4.00;1.80;;;;;;;15.09;100.00;102271.88;2055043;28;20462;-67
2023/10/07 00:49:41;;;;;;;4.00;1.60;;;;;;;15.07;100.00;102274.28;2055841;28;20194;-67
2023/10/07 00:50:42;;;;;;;3.57;1.70;;;;;;;15.07;100.00;102274.28;2055836;28;20918;-67
2023/10/07 00:51:46;;;;;;;2.73;1.73;;;;;;;14.96;100.00;102258.94;2055684;28;20507;-67
2023/10/07 00:54:07;;;;;;;3.27;1.50;;;;;;;14.96;100.00;102278.47;2055852;28;20434;-67
2023/10/07 00:55:17;;;;;;;7.97;1.83;;;;;;;14.65;100.00;102233.09;2055545;28;20406;-67
2023/10/07 00:56:22;;;;;;;2.30;1.20;;;;;;;14.91;100.00;102274.16;2055510;28;20406;-67
2023/10/07 00:57:24;;;;;;;3.50;1.63;;;;;;;14.91;100.00;102276.16;2055570;28;20410;-67
2023/10/07 00:58:27;;;;;;;2.93;1.23;;;;;;;14.90;100.00;102286.53;2047245;29;21030;-67
2023/10/07 00:59:29;;;;;;;3.07;1.40;;;;;;;14.87;100.00;102270.66;2055206;28;20458;-67
2023/10/07 01:00:41;;;;;;;4.27;2.00;;;;;;;14.80;100.00;102272.75;2055926;28;20442;-67
2023/10/07 01:01:46;;;;;;;1.93;1.47;;;;;;;14.73;100.00;102259.69;2055688;28;20807;-67
2023/10/07 01:02:52;;;;;;;2.07;1.40;;;;;;;14.83;100.00;102269.91;2055545;28;20536;-67
2023/10/07 01:03:55;;;;;;;3.77;1.77;;;;;;;14.81;100.00;102271.53;2055990;28;20430;-67
2023/10/07 01:05:00;;;;;;;1.70;1.20;;;;;;;14.81;100.00;102265.97;2055764;28;20577;-67
2023/10/07 01:07:03;;;;;;;3.03;1.90;;;;;;;14.50;100.00;102222.56;2054680;28;21020;-66
2023/10/07 01:08:06;;;;;;;3.17;1.67;;;;;;;14.81;100.00;102265.97;2048600;28;20811;-66
2023/10/07 01:09:22;;;;;;;2.90;1.50;;;;;;;14.81;100.00;102263.94;2055721;28;20430;-67
2023/10/07 01:10:26;;;;;;;3.60;1.73;;;;;;;14.81;100.00;102268.75;2055679;28;20402;-67
2023/10/07 01:11:30;;;;;;;3.57;2.03;;;;;;;14.80;100.00;102262.34;2055747;28;20459;-67
2023/10/07 01:12:36;;;;;;;2.13;1.40;;;;;;;14.81;100.00;102269.50;2055754;28;20414;-66
2023/10/07 01:13:44;;;;;;;4.30;1.47;;;;;;;14.79;100.00;102248.81;2055533;28;20408;-67
2023/10/07 01:14:47;;;;;;;4.23;1.73;;;;;;;14.70;100.00;102243.78;2056065;28;20822;-66
2023/10/07 01:15:48;;;;;;;3.17;1.77;;;;;;;14.73;100.00;102258.88;2056158;28;20424;-67
2023/10/07 01:16:49;;;;;;;3.50;1.57;;;;;;;14.73;100.00;102264.47;2054423;28;20464;-67
2023/10/07 01:17:56;;;;;;;3.70;1.73;;;;;;;14.16;100.00;102172.44;2054466;28;20185;-67
2023/10/07 01:19:14;;;;;;;2.70;1.77;;;;;;;14.73;100.00;102276.44;2055828;28;20973;-67
2023/10/07 01:20:14;;;;;;;3.03;1.43;;;;;;;13.94;100.00;102136.91;2055371;28;20556;-66
2023/10/07 01:21:31;;;;;;;3.60;1.60;;;;;;;14.69;100.00;102261.72;2056853;28;20492;-67
2023/10/07 01:22:35;;;;;;;3.60;1.83;;;;;;;14.64;100.00;102264.19;2057091;28;20679;-67
2023/10/07 01:23:36;;;;;;;4.87;1.80;;;;;;;14.65;100.00;102266.56;2057192;28;20475;-67
2023/10/07 01:25:43;;;;;;;2.00;1.40;;;;;;;14.34;100.00;102217.59;2057369;28;20195;-66
2023/10/07 01:26:44;;;;;;;3.70;2.00;;;;;;;14.66;100.00;102267.38;2056786;28;20198;-67
2023/10/07 01:27:53;;;;;;;2.80;1.70;;;;;;;14.64;100.00;102262.22;2056152;28;20762;-67
2023/10/07 01:29:04;;;;;;;1.90;1.30;;;;;;;14.61;100.00;102268.63;2057235;28;20198;-67
2023/10/07 01:30:17;;;;;;;3.43;1.60;;;;;;;14.57;100.00;102262.31;2057290;28;20536;-67
2023/10/07 01:31:21;;;;;;;3.80;2.30;;;;;;;14.58;100.00;102261.09;2057203;28;20465;-67
2023/10/07 01:32:22;;;;;;;2.87;1.80;;;;;;;14.57;100.00;102267.91;2057201;28;20826;-67
2023/10/07 01:33:35;;;;;;;2.93;1.80;;;;;;;14.59;100.00;102264.66;2056986;28;20445;-67
2023/10/07 01:34:35;;;;;;;2.63;1.73;;;;;;;14.53;100.00;102261.56;2056869;28;20201;-67
2023/10/07 01:35:39;;;;;;;3.30;1.73;;;;;;;14.55;100.00;102261.94;2057254;28;20453;-67
2023/10/07 01:36:41;;;;;;;2.80;1.70;;;;;;;14.45;100.00;102251.72;2055975;28;20182;-67
2023/10/07 01:37:47;;;;;;;4.07;2.00;;;;;;;14.50;100.00;102261.63;2056015;28;20421;-67
2023/10/07 01:38:51;;;;;;;3.03;1.90;;;;;;;14.48;100.00;102252.88;2057654;28;20947;-67
2023/10/07 01:39:54;;;;;;;2.60;1.40;;;;;;;14.46;100.00;102258.91;2056464;28;20461;-67
2023/10/07 01:40:55;;;;;;;2.90;1.53;;;;;;;14.39;100.00;102258.19;2056463;28;20495;-67
2023/10/07 01:42:01;;;;;;;4.10;1.70;;;;;;;14.44;100.00;102258.50;2064244;28;20484;-67
2023/10/07 01:43:02;;;;;;;3.33;1.93;;;;;;;14.25;100.00;102206.16;2063761;28;20208;-67
2023/10/07 01:44:06;;;;;;;3.20;1.77;;;;;;;14.55;100.00;102255.59;2057333;28;20449;-67
2023/10/07 01:45:11;;;;;;;4.73;1.60;;;;;;;14.49;100.00;102260.06;2056915;28;20500;-67
2023/10/07 01:46:11;;;;;;;3.70;2.07;;;;;;;14.42;100.00;102252.56;2057180;28;20434;-67
2023/10/07 01:47:24;;;;;;;3.37;2.00;;;;;;;14.36;100.00;102242.28;2056612;28;20508;-67
2023/10/07 01:48:25;;;;;;;4.13;2.43;;;;;;;14.37;100.00;102255.03;2055822;28;20174;-67
2023/10/07 01:49:30;;;;;;;4.20;2.53;;;;;;;14.34;100.00;102253.88;2056797;28;20798;-67
2023/10/07 01:50:39;;;;;;;3.63;2.30;;;;;;;14.31;100.00;102253.91;2056828;28;20637;-67
2023/10/07 01:51:45;;;;;;;3.70;2.50;;;;;;;13.48;100.00;102137.47;2056454;28;20410;-67
2023/10/07 01:52:48;;;;;;;3.37;2.20;;;;;;;14.26;100.00;102255.19;2056508;28;20985;-67
2023/10/07 01:53:49;;;;;;;1.43;1.33;;;;;;;14.01;100.00;102221.22;2056647;28;20939;-67
2023/10/07 01:54:52;;;;;;;2.27;1.57;;;;;;;14.27;100.00;102253.97;2057025;28;20441;-67
2023/10/07 01:55:53;;;;;;;2.40;1.50;;;;;;;14.26;100.00;102246.00;2057102;28;20517;-67
2023/10/07 01:56:53;;;;;;;4.70;1.90;;;;;;;14.30;100.00;102257.91;2056244;28;20460;-67
2023/10/07 01:57:54;;;;;;;3.27;2.27;;;;;;;14.30;100.00;102253.13;2056271;28;20185;-67
2023/10/07 02:00:43;;;;;;;3.27;2.00;;;;;;;14.33;100.00;102257.88;2045636;29;20461;-67
2023/10/07 02:01:51;;;;;;;5.20;2.10;;;;;;;14.35;100.00;102257.44;2056177;28;20564;-67
2023/10/07 02:02:54;;;;;;;3.90;1.70;;;;;;;14.35;100.00;102251.88;2056870;28;20459;-67
2023/10/07 02:03:58;;;;;;;3.87;2.13;;;;;;;13.85;100.00;102187.59;2057177;28;20445;-67
2023/10/07 02:05:04;;;;;;;2.97;1.73;;;;;;;14.22;100.00;102248.84;2056475;28;20484;-67
2023/10/07 02:06:05;;;;;;;3.47;1.83;;;;;;;14.23;100.00;102256.00;2057156;28;20452;-67
2023/10/07 02:07:08;;;;;;;2.73;1.80;;;;;;;14.23;100.00;102255.19;2056356;28;20484;-67
2023/10/07 02:08:20;;;;;;;4.90;1.43;;;;;;;14.25;100.00;102255.59;2055632;28;20453;-67
2023/10/07 02:09:29;;;;;;;3.60;1.87;;;;;;;14.24;100.00;102263.16;2057014;28;20455;-67
2023/10/07 02:10:31;;;;;;;2.70;1.57;;;;;;;14.09;100.00;102247.00;2056826;28;20884;-67
2023/10/07 02:11:31;;;;;;;2.83;1.90;;;;;;;14.19;100.00;102260.84;2056982;28;20438;-67
2023/10/07 02:12:33;;;;;;;3.27;2.03;;;;;;;14.15;100.00;102265.63;2056855;28;20923;-67
2023/10/07 02:13:33;;;;;;;2.77;1.40;;;;;;;14.18;100.00;102259.22;2056804;28;20174;-67
2023/10/07 02:14:34;;;;;;;4.37;1.77;;;;;;;14.18;100.00;102256.44;2057272;28;20414;-67
2023/10/07 02:15:38;;;;;;;3.03;1.83;;;;;;;13.80;100.00;102209.53;2056955;28;20587;-67
2023/10/07 02:16:38;;;;;;;3.30;1.60;;;;;;;14.15;100.00;102265.63;2056307;28;20652;-67
2023/10/07 02:17:39;;;;;;;5.07;2.43;;;;;;;14.16;100.00;102267.22;2055109;28;20843;-67
2023/10/07 02:18:44;;;;;;;2.90;1.77;;;;;;;14.18;100.00;102266.78;2056866;28;20191;-67
2023/10/07 02:19:44;;;;;;;2.83;1.53;;;;;;;14.16;100.00;102264.44;2056264;28;20198;-67
2023/10/07 02:20:49;;;;;;;3.73;1.43;;;;;;;14.17;100.00;102262.44;2056558;28;20471;-67
2023/10/07 02:21:50;;;;;;;3.53;1.60;;;;;;;13.91;100.00;102229.69;2056657;28;20181;-67
2023/10/07 02:22:51;;;;;;;2.70;1.63;;;;;;;14.24;100.00;102273.53;2057005;28;20506;-67
2023/10/07 02:23:52;;;;;;;3.10;1.80;;;;;;;14.26;100.00;102268.31;2057278;28;20660;-67
2023/10/07 02:25:02;;;;;;;3.03;1.80;;;;;;;14.15;100.00;102256.50;2052168;28;20898;-67
2023/10/07 02:26:07;;;;;;;4.57;1.70;;;;;;;13.57;100.00;102173.22;2049504;28;20569;-67
2023/10/07 02:27:17;;;;;;;2.47;1.50;;;;;;;13.73;100.00;102188.13;2056006;28;20449;-67
2023/10/07 02:28:21;;;;;;;4.80;2.20;;;;;;;14.24;100.00;102271.53;2056504;28;20426;-67
2023/10/07 02:29:22;;;;;;;3.40;1.57;;;;;;;14.20;100.00;102261.63;2056169;28;20607;-67
2023/10/07 02:30:25;;;;;;;2.00;1.23;;;;;;;14.16;100.00;102272.00;2057140;28;20442;-67
2023/10/07 02:31:27;;;;;;;2.80;1.80;;;;;;;14.15;100.00;102268.41;2056347;28;20201;-67
2023/10/07 02:32:31;;;;;;;2.17;1.70;;;;;;;14.18;100.00;102272.38;2056553;28;20871;-67
2023/10/07 02:33:41;;;;;;;2.83;1.77;;;;;;;14.19;100.00;102269.19;2056634;28;20453;-67
2023/10/07 02:34:51;;;;;;;4.23;1.80;;;;;;;14.14;100.00;102271.66;2056682;28;20485;-67
2023/10/07 02:35:55;;;;;;;3.20;1.83;;;;;;;13.66;100.00;102204.94;2056760;28;20534;-67
2023/10/07 02:37:11;;;;;;;6.53;2.00;;;;;;;14.09;100.00;102272.09;2055867;28;20449;-67
2023/10/07 02:38:12;;;;;;;3.57;2.10;;;;;;;14.08;100.00;102270.53;2055544;28;20459;-67
2023/10/07 02:39:19;;;;;;;4.07;1.80;;;;;;;14.07;100.00;102271.72;2056487;28;20442;-67
2023/10/07 02:40:22;;;;;;;3.13;1.93;;;;;;;14.06;100.00;102268.16;2056877;28;20442;-67
2023/10/07 02:41:25;;;;;;;3.90;1.80;;;;;;;14.05;100.00;102274.94;2056281;28;20430;-67
2023/10/07 02:42:28;;;;;;;3.40;1.90;;;;;;;14.04;100.00;102273.34;2056282;28;20466;-67
2023/10/07 02:43:29;;;;;;;3.70;1.73;;;;;;;13.92;100.00;102254.38;2056597;28;20423;-67
2023/10/07 02:44:29;;;;;;;3.73;1.80;;;;;;;14.05;100.00;102276.94;2057109;28;20410;-67
2023/10/07 02:45:31;;;;;;;3.67;1.80;;;;;;;14.02;100.00;102281.34;2056662;28;20229;-67
2023/10/07 02:46:32;;;;;;;2.70;1.50;;;;;;;14.02;100.00;102277.75;2055916;28;20204;-67
2023/10/07 02:47:32;;;;;;;3.93;2.13;;;;;;;14.04;100.00;102280.94;2055507;28;20445;-67
2023/10/07 02:48:35;;;;;;;3.20;1.70;;;;;;;14.05;100.00;102283.31;2055731;28;20725;-67
2023/10/07 02:49:36;;;;;;;2.93;1.70;;;;;;;14.07;100.00;102280.06;2056676;28;20554;-67
2023/10/07 02:50:42;;;;;;;2.17;1.50;;;;;;;13.88;100.00;102250.84;2056700;28;20523;-67
2023/10/07 02:51:47;;;;;;;4.20;1.73;;;;;;;14.08;100.00;102278.91;2056316;28;20163;-67
2023/10/07 02:52:47;;;;;;;2.60;1.50;;;;;;;14.08;100.00;102278.91;2056782;28;20402;-67
2023/10/07 02:53:58;;;;;;;2.80;1.40;;;;;;;14.08;100.00;102276.88;2056739;28;20957;-67
2023/10/07 02:56:22;;;;;;;3.07;1.77;;;;;;;14.01;100.00;102273.38;2029707;29;20433;-67
2023/10/07 02:57:34;;;;;;;2.67;1.80;;;;;;;14.02;100.00;102275.75;2052124;28;20534;-68
2023/10/07 02:58:48;;;;;;;3.73;1.73;;;;;;;14.03;100.00;102274.53;2056273;28;20164;-67
2023/10/07 02:59:51;;;;;;;2.43;1.47;;;;;;;14.04;100.00;102280.94;2056474;28;20397;-67
2023/10/07 03:00:52;;;;;;;5.63;1.87;;;;;;;14.04;100.00;102278.91;2056117;28;20430;-67
2023/10/07 03:02:37;;;;;;;3.67;1.77;;;;;;;14.03;100.00;102282.13;2056845;28;20596;-67
2023/10/07 03:04:34;;;;;;;5.67;2.13;;;;;;;14.00;100.00;102274.59;2056603;28;20507;-67
2023/10/07 03:05:45;;;;;;;2.97;1.77;;;;;;;14.00;100.00;102267.03;2056495;28;20937;-67
2023/10/07 03:06:46;;;;;;;3.50;1.60;;;;;;;13.98;100.00;102275.00;2056250;28;21139;-68
2023/10/07 03:07:50;;;;;;;2.67;1.60;;;;;;;13.88;100.00;102250.06;2055490;28;20418;-68
2023/10/07 03:08:57;;;;;;;3.77;2.10;;;;;;;13.93;100.00;102260.75;2056273;28;20859;-68
2023/10/07 03:11:35;;;;;;;4.47;1.73;;;;;;;14.01;100.00;102270.59;2056190;28;20402;-67
2023/10/07 03:12:36;;;;;;;3.67;1.90;;;;;;;13.99;100.00;102273.78;2056440;28;20445;-67
2023/10/07 03:13:45;;;;;;;2.73;1.40;;;;;;;14.00;100.00;102269.03;2056261;28;20426;-67
2023/10/07 03:14:45;;;;;;;2.93;1.60;;;;;;;14.00;100.00;102269.03;2056383;28;20401;-68
2023/10/07 03:15:59;;;;;;;2.83;1.70;;;;;;;14.00;100.00;102269.03;2059473;28;20426;-68
2023/10/07 03:17:00;;;;;;;3.30;1.87;;;;;;;13.99;100.00;102264.66;2055096;28;20258;-68
2023/10/07 03:18:04;;;;;;;2.97;1.60;;;;;;;13.98;100.00;102254.72;2055443;28;20508;-67
2023/10/07 03:21:42;;;;;;;3.67;1.87;;;;;;;13.97;100.00;102264.25;2056568;28;20186;-67
2023/10/07 03:22:43;;;;;;;5.60;2.07;;;;;;;13.92;100.00;102256.38;2056399;28;20411;-67
2023/10/07 03:23:53;;;;;;;4.17;1.50;;;;;;;13.95;100.00;102261.13;2056734;28;20414;-67
2023/10/07 03:25:00;;;;;;;3.13;1.87;;;;;;;13.95;100.00;102253.56;2056473;28;20403;-67
2023/10/07 03:27:10;;;;;;;4.00;1.60;;;;;;;13.90;100.00;102256.81;2055847;28;20466;-67
2023/10/07 03:28:16;;;;;;;3.53;1.80;;;;;;;13.90;100.00;102256.00;2055416;28;20179;-68
2023/10/07 03:29:32;;;;;;;4.70;1.77;;;;;;;13.88;100.00;102261.22;2056278;28;20446;-67
2023/10/07 03:30:32;;;;;;;5.67;2.10;;;;;;;13.87;100.00;102257.63;2048870;28;20913;-67
2023/10/07 03:32:57;;;;;;;4.97;1.77;;;;;;;13.86;100.00;102263.59;2056182;28;20657;-67
2023/10/07 03:34:01;;;;;;;2.87;1.57;;;;;;;13.60;100.00;102225.28;2056442;28;20430;-68
2023/10/07 03:35:01;;;;;;;3.33;1.60;;;;;;;13.83;100.00;102248.50;2056199;28;20457;-67
2023/10/07 03:38:09;;;;;;;3.13;1.80;;;;;;;13.81;100.00;102252.91;2055692;28;20270;-67
2023/10/07 03:40:34;;;;;;;3.00;1.83;;;;;;;13.81;100.00;102259.28;2056409;28;20293;-67
2023/10/07 03:41:35;;;;;;;4.00;1.90;;;;;;;13.83;100.00;102261.66;2056337;28;20437;-67
2023/10/07 03:42:38;;;;;;;4.27;1.90;;;;;;;13.75;100.00;102262.94;2056199;28;20450;-68
2023/10/07 03:43:38;;;;;;;2.33;1.60;;;;;;;13.68;100.00;102258.22;2055043;28;20229;-67
2023/10/07 03:44:39;;;;;;;5.30;1.70;;;;;;;13.71;100.00;102264.97;2055463;28;21157;-67
2023/10/07 03:45:42;;;;;;;3.37;1.47;;;;;;;13.71;100.00;102262.19;2056121;28;20615;-68
2023/10/07 03:46:48;;;;;;;2.40;1.40;;;;;;;13.72;100.00;102261.78;2056213;28;20198;-68
2023/10/07 03:47:50;;;;;;;3.27;1.80;;;;;;;13.68;100.00;102258.22;2055356;28;20485;-67
2023/10/07 03:48:55;;;;;;;2.57;1.73;;;;;;;13.68;100.00;102254.66;2055981;28;20453;-68
2023/10/07 03:49:58;;;;;;;7.83;2.00;;;;;;;13.68;100.00;102260.22;2056296;28;20483;-67
2023/10/07 03:51:05;;;;;;;2.70;1.63;;;;;;;13.66;100.00;102270.97;2055866;28;20457;-67
2023/10/07 03:52:08;;;;;;;4.57;1.73;;;;;;;13.06;100.00;102162.22;2056320;28;20433;-67
2023/10/07 03:53:09;;;;;;;2.53;1.60;;;;;;;13.67;100.00;102264.19;2056296;28;20509;-67
2023/10/07 03:54:15;;;;;;;3.77;1.80;;;;;;;13.68;100.00;102261.00;2055930;28;20878;-67
2023/10/07 03:55:16;;;;;;;3.50;1.80;;;;;;;13.61;100.00;102261.09;2056366;28;20435;-67
2023/10/07 03:56:16;;;;;;;2.97;1.97;;;;;;;13.67;100.00;102259.44;2055834;28;20421;-67
2023/10/07 03:57:18;;;;;;;2.97;1.70;;;;;;;13.69;100.00;102264.59;2055549;28;20266;-67
2023/10/07 03:58:20;;;;;;;2.73;1.70;;;;;;;13.66;100.00;102257.84;2055635;28;20174;-67
2023/10/07 03:59:20;;;;;;;3.43;1.90;;;;;;;13.64;100.00;102262.25;2055936;28;20951;-67
2023/10/07 04:00:27;;;;;;;3.80;2.23;;;;;;;13.59;100.00;102259.94;2055649;28;20875;-67
2023/10/07 04:01:27;;;;;;;4.30;1.80;;;;;;;13.09;100.00;102194.78;2056250;28;20186;-67
2023/10/07 04:03:30;;;;;;;3.10;1.60;;;;;;;13.44;100.00;102259.28;2056106;28;20236;-67
2023/10/07 04:04:31;;;;;;;4.53;2.03;;;;;;;13.48;100.00;102256.47;2056103;28;20198;-67
2023/10/07 04:05:31;;;;;;;2.50;1.70;;;;;;;13.44;100.00;102266.84;2055900;28;20430;-67
2023/10/07 04:06:32;;;;;;;3.83;2.00;;;;;;;13.48;100.00;102267.59;2055632;28;20175;-67
2023/10/07 04:07:32;;;;;;;4.63;1.80;;;;;;;13.47;100.00;102264.00;2055447;28;20589;-67
2023/10/07 04:08:33;;;;;;;2.93;1.70;;;;;;;13.43;100.00;102263.25;2056076;28;20202;-67
2023/10/07 04:09:35;;;;;;;3.90;1.93;;;;;;;13.40;100.00;102266.06;2055938;28;20210;-67
2023/10/07 04:10:43;;;;;;;2.47;1.80;;;;;;;13.32;100.00;102262.56;2056027;28;20178;-67
2023/10/07 04:11:50;;;;;;;3.70;2.40;;;;;;;13.35;100.00;102266.50;2055284;28;21019;-67
2023/10/07 04:12:56;;;;;;;5.17;1.87;;;;;;;13.32;100.00;102262.56;2055964;28;20445;-67
2023/10/07 04:13:56;;;;;;;3.30;1.90;;;;;;;13.26;100.00;102264.22;2056219;28;20437;-67
2023/10/07 04:14:57;;;;;;;8.47;2.30;;;;;;;13.25;100.00;102264.63;2055391;28;20511;-67
2023/10/07 04:15:59;;;;;;;4.20;2.10;;;;;;;13.20;100.00;102260.28;2056339;28;20175;-67
2023/10/07 04:17:04;;;;;;;5.20;2.47;;;;;;;13.11;100.00;102259.97;2055504;28;20550;-67
2023/10/07 04:18:08;;;;;;;2.50;1.63;;;;;;;13.05;100.00;102252.47;2054696;28;20970;-67
2023/10/07 04:20:19;;;;;;;3.57;1.77;;;;;;;12.92;100.00;102232.66;2048617;28;20404;-67
2023/10/07 04:21:24;;;;;;;4.23;2.43;;;;;;;13.12;100.00;102261.53;2056147;28;20810;-67
2023/10/07 04:22:25;;;;;;;4.27;1.87;;;;;;;13.10;100.00;102261.19;2055873;28;20221;-67
2023/10/07 04:23:26;;;;;;;2.80;1.77;;;;;;;13.12;100.00;102269.91;2055935;28;20504;-67
2023/10/07 04:24:28;;;;;;;4.77;2.23;;;;;;;13.10;100.00;102261.19;2055632;28;20192;-67
2023/10/07 04:25:32;;;;;;;3.13;1.90;;;;;;;12.65;100.00;102200.31;2055756;28;20473;-67
2023/10/07 04:26:33;;;;;;;3.37;2.00;;;;;;;12.97;100.00;102267.66;2055788;28;20440;-67
2023/10/07 04:27:41;;;;;;;3.43;2.17;;;;;;;12.96;100.00;102271.63;2054831;28;20943;-67
2023/10/07 04:28:42;;;;;;;3.63;1.97;;;;;;;12.97;100.00;102268.41;2055735;28;20456;-67
2023/10/07 04:29:42;;;;;;;4.33;2.03;;;;;;;12.95;100.00;102264.44;2055269;28;20424;-67
2023/10/07 04:30:47;;;;;;;5.13;2.17;;;;;;;12.78;100.00;102240.31;2056094;28;20627;-67
2023/10/07 04:31:52;;;;;;;3.20;1.97;;;;;;;12.88;100.00;102272.84;2056080;28;20181;-67
2023/10/07 04:33:00;;;;;;;2.80;1.70;;;;;;;12.84;100.00;102263.72;2056254;28;20516;-67
2023/10/07 04:34:03;;;;;;;2.70;1.73;;;;;;;12.79;100.00;102266.94;2056513;28;20405;-67
2023/10/07 04:35:15;;;;;;;4.37;1.90;;;;;;;12.75;100.00;102266.19;2056002;28;20454;-67
2023/10/07 04:36:18;;;;;;;4.57;2.10;;;;;;;12.83;100.00;102265.72;2055859;28;20492;-67
2023/10/07 04:37:18;;;;;;;5.20;2.03;;;;;;;12.80;100.00;102274.13;2055332;28;20453;-67
2023/10/07 04:38:39;;;;;;;6.10;2.13;;;;;;;12.84;100.00;102278.44;2054747;28;20455;-67
2023/10/07 04:42:20;;;;;;;4.57;2.10;;;;;;;12.48;100.00;102240.13;2056180;28;21051;-67
2023/10/07 04:43:35;;;;;;;3.33;2.13;;;;;;;12.73;100.00;102274.94;2047710;29;20404;-68
2023/10/07 04:45:48;;;;;;;3.53;2.00;;;;;;;12.70;100.00;102272.97;2056256;28;20520;-68
2023/10/07 04:46:56;;;;;;;4.37;2.10;;;;;;;12.78;100.00;102279.28;2047812;28;20389;-67
2023/10/07 04:48:23;;;;;;;3.07;1.70;;;;;;;12.78;100.00;102276.50;2055470;28;20897;-68
2023/10/07 04:49:19;;;;;;;2.97;1.67;;;;;;;12.80;100.00;102274.88;2055747;28;20457;-67
2023/10/07 04:50:20;;;;;;;3.67;2.23;;;;;;;12.86;100.00;102273.25;2055538;28;20434;-68
2023/10/07 04:51:46;;;;;;;2.93;2.03;;;;;;;12.80;100.00;102272.09;2056273;28;20183;-67
2023/10/07 04:52:52;;;;;;;3.37;2.17;;;;;;;12.86;100.00;102281.59;2055342;28;20516;-67
2023/10/07 04:53:57;;;;;;;4.10;2.03;;;;;;;12.80;100.00;102283.22;2055785;28;20394;-67
2023/10/07 04:54:58;;;;;;;3.23;2.00;;;;;;;12.76;100.00;102279.69;2056053;28;20398;-67
2023/10/07 04:56:01;;;;;;;2.87;1.80;;;;;;;12.79;100.00;102283.63;2057970;28;20439;-67
2023/10/07 04:57:09;;;;;;;5.43;2.13;;;;;;;12.81;100.00;102286.81;2056223;28;20442;-67
2023/10/07 04:58:12;;;;;;;2.70;1.80;;;;;;;12.80;100.00;102279.69;2056557;28;20422;-67
2023/10/07 04:59:13;;;;;;;3.00;1.73;;;;;;;12.81;100.00;102284.03;2057471;28;20457;-67
2023/10/07 05:00:34;;;;;;;3.07;1.63;;;;;;;12.81;100.00;102282.03;2057664;28;20426;-67
2023/10/07 05:01:35;;;;;;;3.47;1.87;;;;;;;12.76;100.00;102279.69;2057496;28;20199;-67
2023/10/07 05:02:37;;;;;;;5.77;2.00;;;;;;;12.91;100.00;102285.97;2057388;28;20564;-67
2023/10/07 05:03:38;;;;;;;3.07;1.93;;;;;;;12.68;100.00;102235.63;2057480;28;20195;-67
2023/10/07 05:04:41;;;;;;;3.10;1.70;;;;;;;12.95;100.00;102283.91;2057299;28;20451;-67
2023/10/07 05:05:45;;;;;;;4.43;2.00;;;;;;;12.62;100.00;102226.94;2057403;28;20458;-67
2023/10/07 05:06:45;;;;;;;7.20;2.10;;;;;;;12.96;100.00;102277.97;2056998;28;20999;-67
2023/10/07 05:07:46;;;;;;;3.13;1.77;;;;;;;12.96;100.00;102285.56;2056298;28;20807;-67
2023/10/07 05:08:46;;;;;;;4.17;1.70;;;;;;;12.97;100.00;102281.56;2057577;28;20245;-67
2023/10/07 05:09:47;;;;;;;3.90;2.10;;;;;;;12.73;100.00;102241.56;2057768;28;20179;-67
2023/10/07 05:11:03;;;;;;;3.60;1.90;;;;;;;13.00;100.00;102281.53;2057159;28;20192;-67
2023/10/07 05:12:06;;;;;;;3.67;1.80;;;;;;;13.11;100.00;102276.66;2057035;28;20399;-67
2023/10/07 05:13:08;;;;;;;4.80;1.77;;;;;;;13.11;100.00;102278.69;2057240;28;20804;-67
2023/10/07 05:14:10;;;;;;;3.30;2.03;;;;;;;13.14;100.00;102272.28;2056791;28;20529;-67
2023/10/07 05:15:11;;;;;;;4.03;2.20;;;;;;;13.13;100.00;102265.94;2056481;28;20458;-67
2023/10/07 05:16:12;;;;;;;2.03;1.37;;;;;;;13.19;100.00;102271.84;2057310;28;20453;-67
2023/10/07 05:17:12;;;;;;;2.53;1.60;;;;;;;13.11;100.00;102265.53;2056844;28;20188;-67
2023/10/07 05:18:16;;;;;;;2.77;1.43;;;;;;;12.96;100.00;102246.59;2055978;28;20207;-67
2023/10/07 05:19:21;;;;;;;3.70;2.03;;;;;;;13.16;100.00;102278.25;2057237;28;20266;-67
2023/10/07 05:20:27;;;;;;;3.63;1.90;;;;;;;13.14;100.00;102266.72;2057458;28;20741;-67
2023/10/07 05:21:28;;;;;;;3.73;2.07;;;;;;;13.12;100.00;102274.69;2057374;28;20410;-67